sensor_id;sensor_type;location;lat;lon;timestamp;P1;durP1;ratioP1;P2;durP2;ratioP2
48733;SDS011;34530;52.084;5.146;2022-09-21T00:00:45;5.90;;;3.20;;
48733;SDS011;34530;52.084;5.146;2022-09-21T00:03:12;4.35;;;2.85;;
48733;SDS011;34530;52.084;5.146;2022-09-21T00:05:38;5.38;;;3.42;;
48733;SDS011;34530;52.084;5.146;2022-09-21T00:08:05;3.80;;;2.60;;
48733;SDS011;34530;52.084;5.146;2022-09-21T00:10:33;4.28;;;2.72;;
48733;SDS011;34530;52.084;5.146;2022-09-21T00:12:59;4.90;;;2.83;;
48733;SDS011;34530;52.084;5.146;2022-09-21T00:15:28;4.70;;;2.72;;
48733;SDS011;34530;52.084;5.146;2022-09-21T00:17:55;5.90;;;2.80;;
48733;SDS011;34530;52.084;5.146;2022-09-21T00:20:23;5.00;;;2.47;;
48733;SDS011;34530;52.084;5.146;2022-09-21T00:22:50;4.50;;;2.47;;
48733;SDS011;34530;52.084;5.146;2022-09-21T00:25:16;5.82;;;2.50;;
48733;SDS011;34530;52.084;5.146;2022-09-21T00:27:43;5.22;;;2.50;;
48733;SDS011;34530;52.084;5.146;2022-09-21T00:30:11;5.32;;;2.63;;
48733;SDS011;34530;52.084;5.146;2022-09-21T00:32:37;6.40;;;2.53;;
48733;SDS011;34530;52.084;5.146;2022-09-21T00:35:03;6.20;;;3.00;;
48733;SDS011;34530;52.084;5.146;2022-09-21T00:37:31;5.28;;;2.75;;
48733;SDS011;34530;52.084;5.146;2022-09-21T00:39:58;4.53;;;2.35;;
48733;SDS011;34530;52.084;5.146;2022-09-21T00:42:25;3.60;;;2.20;;
48733;SDS011;34530;52.084;5.146;2022-09-21T00:44:52;3.58;;;2.30;;
48733;SDS011;34530;52.084;5.146;2022-09-21T00:47:21;5.05;;;2.15;;
48733;SDS011;34530;52.084;5.146;2022-09-21T00:49:52;4.82;;;2.28;;
48733;SDS011;34530;52.084;5.146;2022-09-21T00:52:19;3.97;;;2.22;;
48733;SDS011;34530;52.084;5.146;2022-09-21T00:54:55;4.28;;;2.38;;
48733;SDS011;34530;52.084;5.146;2022-09-21T00:57:43;2.97;;;2.33;;
48733;SDS011;34530;52.084;5.146;2022-09-21T01:00:12;4.78;;;2.45;;
48733;SDS011;34530;52.084;5.146;2022-09-21T01:02:38;4.70;;;2.47;;
48733;SDS011;34530;52.084;5.146;2022-09-21T01:05:05;4.15;;;2.83;;
48733;SDS011;34530;52.084;5.146;2022-09-21T01:07:33;5.55;;;2.50;;
48733;SDS011;34530;52.084;5.146;2022-09-21T01:10:04;3.88;;;2.58;;
48733;SDS011;34530;52.084;5.146;2022-09-21T01:21:21;5.93;;;2.90;;
48733;SDS011;34530;52.084;5.146;2022-09-21T01:24:16;5.35;;;2.60;;
48733;SDS011;34530;52.084;5.146;2022-09-21T01:27:14;3.47;;;2.30;;
48733;SDS011;34530;52.084;5.146;2022-09-21T01:30:02;4.53;;;2.60;;
48733;SDS011;34530;52.084;5.146;2022-09-21T01:32:36;5.57;;;2.40;;
48733;SDS011;34530;52.084;5.146;2022-09-21T01:35:13;5.32;;;2.47;;
48733;SDS011;34530;52.084;5.146;2022-09-21T01:37:43;10.43;;;2.47;;
48733;SDS011;34530;52.084;5.146;2022-09-21T01:40:14;3.83;;;2.17;;
48733;SDS011;34530;52.084;5.146;2022-09-21T01:42:47;5.80;;;2.63;;
48733;SDS011;34530;52.084;5.146;2022-09-21T01:45:16;4.85;;;2.20;;
48733;SDS011;34530;52.084;5.146;2022-09-21T01:47:45;3.13;;;2.03;;
48733;SDS011;34530;52.084;5.146;2022-09-21T01:50:13;4.07;;;2.30;;
48733;SDS011;34530;52.084;5.146;2022-09-21T01:52:49;5.22;;;2.45;;
48733;SDS011;34530;52.084;5.146;2022-09-21T01:55:31;3.90;;;2.15;;
48733;SDS011;34530;52.084;5.146;2022-09-21T02:00:43;3.53;;;2.25;;
48733;SDS011;34530;52.084;5.146;2022-09-21T02:06:05;2.97;;;1.98;;
48733;SDS011;34530;52.084;5.146;2022-09-21T02:08:33;3.10;;;1.88;;
48733;SDS011;34530;52.084;5.146;2022-09-21T02:11:00;3.67;;;2.30;;
48733;SDS011;34530;52.084;5.146;2022-09-21T02:13:39;4.22;;;2.30;;
48733;SDS011;34530;52.084;5.146;2022-09-21T02:19:06;4.07;;;2.10;;
48733;SDS011;34530;52.084;5.146;2022-09-21T02:27:17;3.03;;;1.77;;
48733;SDS011;34530;52.084;5.146;2022-09-21T02:29:54;2.50;;;1.90;;
48733;SDS011;34530;52.084;5.146;2022-09-21T02:35:52;3.45;;;1.63;;
48733;SDS011;34530;52.084;5.146;2022-09-21T02:38:15;2.28;;;1.70;;
48733;SDS011;34530;52.084;5.146;2022-09-21T02:40:45;4.32;;;2.03;;
48733;SDS011;34530;52.084;5.146;2022-09-21T02:43:26;2.55;;;1.90;;
48733;SDS011;34530;52.084;5.146;2022-09-21T02:47:00;6.65;;;2.08;;
48733;SDS011;34530;52.084;5.146;2022-09-21T02:49:12;3.00;;;1.90;;
48733;SDS011;34530;52.084;5.146;2022-09-21T02:51:48;2.10;;;1.90;;
48733;SDS011;34530;52.084;5.146;2022-09-21T02:54:16;7.18;;;1.80;;
48733;SDS011;34530;52.084;5.146;2022-09-21T02:56:46;4.38;;;1.85;;
48733;SDS011;34530;52.084;5.146;2022-09-21T02:59:13;4.25;;;2.22;;
48733;SDS011;34530;52.084;5.146;2022-09-21T03:01:40;2.67;;;1.90;;
48733;SDS011;34530;52.084;5.146;2022-09-21T03:04:07;5.32;;;1.98;;
48733;SDS011;34530;52.084;5.146;2022-09-21T03:06:33;3.65;;;1.90;;
48733;SDS011;34530;52.084;5.146;2022-09-21T03:08:58;5.28;;;1.88;;
48733;SDS011;34530;52.084;5.146;2022-09-21T03:11:24;2.97;;;1.90;;
48733;SDS011;34530;52.084;5.146;2022-09-21T03:13:50;2.95;;;1.95;;
48733;SDS011;34530;52.084;5.146;2022-09-21T03:16:15;2.90;;;1.75;;
48733;SDS011;34530;52.084;5.146;2022-09-21T03:18:41;2.28;;;1.70;;
48733;SDS011;34530;52.084;5.146;2022-09-21T03:21:09;3.92;;;1.90;;
48733;SDS011;34530;52.084;5.146;2022-09-21T03:23:35;6.03;;;1.50;;
48733;SDS011;34530;52.084;5.146;2022-09-21T03:26:00;3.85;;;1.75;;
48733;SDS011;34530;52.084;5.146;2022-09-21T03:28:26;4.28;;;2.03;;
48733;SDS011;34530;52.084;5.146;2022-09-21T03:30:52;2.63;;;1.80;;
48733;SDS011;34530;52.084;5.146;2022-09-21T03:33:18;2.95;;;1.67;;
48733;SDS011;34530;52.084;5.146;2022-09-21T03:35:44;2.95;;;1.60;;
48733;SDS011;34530;52.084;5.146;2022-09-21T03:38:12;3.08;;;1.60;;
48733;SDS011;34530;52.084;5.146;2022-09-21T03:40:37;2.30;;;1.67;;
48733;SDS011;34530;52.084;5.146;2022-09-21T03:43:03;5.15;;;1.77;;
48733;SDS011;34530;52.084;5.146;2022-09-21T03:45:28;2.70;;;1.80;;
48733;SDS011;34530;52.084;5.146;2022-09-21T03:47:54;4.40;;;1.58;;
48733;SDS011;34530;52.084;5.146;2022-09-21T03:50:21;3.20;;;1.67;;
48733;SDS011;34530;52.084;5.146;2022-09-21T03:52:48;3.67;;;1.75;;
48733;SDS011;34530;52.084;5.146;2022-09-21T03:55:14;4.90;;;1.85;;
48733;SDS011;34530;52.084;5.146;2022-09-21T03:57:40;2.38;;;1.63;;
48733;SDS011;34530;52.084;5.146;2022-09-21T04:00:06;3.60;;;1.90;;
48733;SDS011;34530;52.084;5.146;2022-09-21T04:02:34;3.45;;;1.50;;
48733;SDS011;34530;52.084;5.146;2022-09-21T04:05:01;2.75;;;1.58;;
48733;SDS011;34530;52.084;5.146;2022-09-21T04:07:29;1.83;;;1.65;;
48733;SDS011;34530;52.084;5.146;2022-09-21T04:09:59;2.40;;;1.50;;
48733;SDS011;34530;52.084;5.146;2022-09-21T04:12:25;2.78;;;1.83;;
48733;SDS011;34530;52.084;5.146;2022-09-21T04:14:51;2.20;;;1.50;;
48733;SDS011;34530;52.084;5.146;2022-09-21T04:17:16;1.98;;;1.50;;
48733;SDS011;34530;52.084;5.146;2022-09-21T04:19:42;5.35;;;2.00;;
48733;SDS011;34530;52.084;5.146;2022-09-21T04:22:11;3.45;;;1.60;;
48733;SDS011;34530;52.084;5.146;2022-09-21T04:24:37;4.47;;;1.58;;
48733;SDS011;34530;52.084;5.146;2022-09-21T04:27:06;3.15;;;1.70;;
48733;SDS011;34530;52.084;5.146;2022-09-21T04:29:33;3.42;;;1.75;;
48733;SDS011;34530;52.084;5.146;2022-09-21T04:31:58;3.80;;;1.70;;
48733;SDS011;34530;52.084;5.146;2022-09-21T04:34:24;2.95;;;1.80;;
48733;SDS011;34530;52.084;5.146;2022-09-21T04:36:50;1.83;;;1.60;;
48733;SDS011;34530;52.084;5.146;2022-09-21T04:39:18;1.90;;;1.40;;
48733;SDS011;34530;52.084;5.146;2022-09-21T04:41:43;3.03;;;1.63;;
48733;SDS011;34530;52.084;5.146;2022-09-21T04:44:09;3.13;;;1.65;;
48733;SDS011;34530;52.084;5.146;2022-09-21T04:46:35;2.70;;;1.88;;
48733;SDS011;34530;52.084;5.146;2022-09-21T04:49:01;2.70;;;1.83;;
48733;SDS011;34530;52.084;5.146;2022-09-21T04:51:26;3.63;;;1.58;;
48733;SDS011;34530;52.084;5.146;2022-09-21T04:53:52;1.92;;;1.70;;
48733;SDS011;34530;52.084;5.146;2022-09-21T04:56:17;4.60;;;2.05;;
48733;SDS011;34530;52.084;5.146;2022-09-21T04:58:43;4.43;;;1.73;;
48733;SDS011;34530;52.084;5.146;2022-09-21T05:01:09;4.38;;;1.80;;
48733;SDS011;34530;52.084;5.146;2022-09-21T05:03:35;3.25;;;1.58;;
48733;SDS011;34530;52.084;5.146;2022-09-21T05:06:01;2.50;;;1.90;;
48733;SDS011;34530;52.084;5.146;2022-09-21T05:08:27;3.20;;;1.67;;
48733;SDS011;34530;52.084;5.146;2022-09-21T05:11:15;2.92;;;1.90;;
48733;SDS011;34530;52.084;5.146;2022-09-21T05:13:45;2.55;;;1.63;;
48733;SDS011;34530;52.084;5.146;2022-09-21T05:16:11;3.97;;;1.85;;
48733;SDS011;34530;52.084;5.146;2022-09-21T05:18:37;4.55;;;1.98;;
48733;SDS011;34530;52.084;5.146;2022-09-21T05:21:03;6.28;;;2.03;;
48733;SDS011;34530;52.084;5.146;2022-09-21T05:23:30;2.50;;;1.67;;
48733;SDS011;34530;52.084;5.146;2022-09-21T05:25:57;5.00;;;2.08;;
48733;SDS011;34530;52.084;5.146;2022-09-21T05:28:23;4.38;;;2.20;;
48733;SDS011;34530;52.084;5.146;2022-09-21T05:33:51;1.98;;;1.67;;
48733;SDS011;34530;52.084;5.146;2022-09-21T05:36:34;3.55;;;1.98;;
48733;SDS011;34530;52.084;5.146;2022-09-21T05:39:14;4.97;;;2.00;;
48733;SDS011;34530;52.084;5.146;2022-09-21T05:41:40;3.17;;;1.42;;
48733;SDS011;34530;52.084;5.146;2022-09-21T05:44:08;3.42;;;1.98;;
48733;SDS011;34530;52.084;5.146;2022-09-21T05:46:39;3.20;;;1.98;;
48733;SDS011;34530;52.084;5.146;2022-09-21T05:51:45;2.40;;;2.03;;
48733;SDS011;34530;52.084;5.146;2022-09-21T05:54:23;2.72;;;1.50;;
48733;SDS011;34530;52.084;5.146;2022-09-21T06:04:55;3.42;;;1.95;;
48733;SDS011;34530;52.084;5.146;2022-09-21T06:07:22;2.35;;;1.80;;
48733;SDS011;34530;52.084;5.146;2022-09-21T06:09:47;3.65;;;2.10;;
48733;SDS011;34530;52.084;5.146;2022-09-21T06:12:13;5.25;;;2.40;;
48733;SDS011;34530;52.084;5.146;2022-09-21T06:14:39;3.10;;;2.08;;
48733;SDS011;34530;52.084;5.146;2022-09-21T06:17:04;4.47;;;2.13;;
48733;SDS011;34530;52.084;5.146;2022-09-21T06:19:30;3.60;;;1.80;;
48733;SDS011;34530;52.084;5.146;2022-09-21T06:21:55;2.83;;;2.03;;
48733;SDS011;34530;52.084;5.146;2022-09-21T06:24:21;4.18;;;2.00;;
48733;SDS011;34530;52.084;5.146;2022-09-21T06:26:47;5.22;;;2.17;;
48733;SDS011;34530;52.084;5.146;2022-09-21T06:29:12;4.80;;;2.42;;
48733;SDS011;34530;52.084;5.146;2022-09-21T06:31:38;4.55;;;1.98;;
48733;SDS011;34530;52.084;5.146;2022-09-21T06:34:04;7.30;;;2.00;;
48733;SDS011;34530;52.084;5.146;2022-09-21T06:36:29;1.98;;;1.77;;
48733;SDS011;34530;52.084;5.146;2022-09-21T06:38:55;5.18;;;2.28;;
48733;SDS011;34530;52.084;5.146;2022-09-21T06:41:21;2.88;;;2.03;;
48733;SDS011;34530;52.084;5.146;2022-09-21T06:43:46;4.40;;;2.13;;
48733;SDS011;34530;52.084;5.146;2022-09-21T06:46:12;3.47;;;2.10;;
48733;SDS011;34530;52.084;5.146;2022-09-21T06:48:38;2.75;;;2.10;;
48733;SDS011;34530;52.084;5.146;2022-09-21T06:51:04;4.68;;;2.33;;
48733;SDS011;34530;52.084;5.146;2022-09-21T06:53:30;5.70;;;2.30;;
48733;SDS011;34530;52.084;5.146;2022-09-21T06:56:04;3.92;;;2.40;;
48733;SDS011;34530;52.084;5.146;2022-09-21T06:58:31;4.82;;;2.55;;
48733;SDS011;34530;52.084;5.146;2022-09-21T07:01:03;3.80;;;2.40;;
48733;SDS011;34530;52.084;5.146;2022-09-21T07:03:32;3.75;;;2.20;;
48733;SDS011;34530;52.084;5.146;2022-09-21T07:05:58;5.32;;;2.70;;
48733;SDS011;34530;52.084;5.146;2022-09-21T07:08:23;3.40;;;2.17;;
48733;SDS011;34530;52.084;5.146;2022-09-21T07:10:51;5.13;;;2.05;;
48733;SDS011;34530;52.084;5.146;2022-09-21T07:13:17;4.47;;;2.35;;
48733;SDS011;34530;52.084;5.146;2022-09-21T07:15:43;5.20;;;2.42;;
48733;SDS011;34530;52.084;5.146;2022-09-21T07:18:11;4.20;;;2.22;;
48733;SDS011;34530;52.084;5.146;2022-09-21T07:20:38;3.55;;;2.20;;
48733;SDS011;34530;52.084;5.146;2022-09-21T07:23:23;4.18;;;2.22;;
48733;SDS011;34530;52.084;5.146;2022-09-21T07:25:48;3.70;;;2.13;;
48733;SDS011;34530;52.084;5.146;2022-09-21T07:28:17;3.25;;;1.92;;
48733;SDS011;34530;52.084;5.146;2022-09-21T07:30:43;3.15;;;2.08;;
48733;SDS011;34530;52.084;5.146;2022-09-21T07:33:09;4.70;;;2.33;;
48733;SDS011;34530;52.084;5.146;2022-09-21T07:35:35;2.75;;;1.90;;
48733;SDS011;34530;52.084;5.146;2022-09-21T07:38:05;6.93;;;2.55;;
48733;SDS011;34530;52.084;5.146;2022-09-21T07:40:32;3.13;;;2.10;;
48733;SDS011;34530;52.084;5.146;2022-09-21T07:42:59;4.15;;;2.13;;
48733;SDS011;34530;52.084;5.146;2022-09-21T07:45:28;4.32;;;2.42;;
48733;SDS011;34530;52.084;5.146;2022-09-21T07:47:55;7.80;;;2.08;;
48733;SDS011;34530;52.084;5.146;2022-09-21T07:50:26;5.13;;;1.90;;
48733;SDS011;34530;52.084;5.146;2022-09-21T07:52:51;6.30;;;2.67;;
48733;SDS011;34530;52.084;5.146;2022-09-21T07:55:17;3.47;;;2.13;;
48733;SDS011;34530;52.084;5.146;2022-09-21T07:57:43;4.20;;;2.05;;
48733;SDS011;34530;52.084;5.146;2022-09-21T08:00:26;4.38;;;2.20;;
48733;SDS011;34530;52.084;5.146;2022-09-21T08:02:56;2.42;;;1.67;;
48733;SDS011;34530;52.084;5.146;2022-09-21T08:05:22;4.80;;;2.05;;
48733;SDS011;34530;52.084;5.146;2022-09-21T08:07:48;2.78;;;1.85;;
48733;SDS011;34530;52.084;5.146;2022-09-21T08:10:13;3.35;;;1.88;;
48733;SDS011;34530;52.084;5.146;2022-09-21T08:12:39;4.38;;;1.95;;
48733;SDS011;34530;52.084;5.146;2022-09-21T08:15:07;3.30;;;1.90;;
48733;SDS011;34530;52.084;5.146;2022-09-21T08:17:36;2.75;;;1.70;;
48733;SDS011;34530;52.084;5.146;2022-09-21T08:20:02;4.22;;;2.05;;
48733;SDS011;34530;52.084;5.146;2022-09-21T08:22:28;3.85;;;1.92;;
48733;SDS011;34530;52.084;5.146;2022-09-21T08:24:54;3.53;;;1.88;;
48733;SDS011;34530;52.084;5.146;2022-09-21T08:27:21;5.43;;;1.77;;
48733;SDS011;34530;52.084;5.146;2022-09-21T08:29:48;3.20;;;1.80;;
48733;SDS011;34530;52.084;5.146;2022-09-21T08:32:14;4.53;;;1.55;;
48733;SDS011;34530;52.084;5.146;2022-09-21T08:34:40;4.50;;;1.80;;
48733;SDS011;34530;52.084;5.146;2022-09-21T08:37:05;4.82;;;1.98;;
48733;SDS011;34530;52.084;5.146;2022-09-21T08:39:31;2.60;;;1.70;;
48733;SDS011;34530;52.084;5.146;2022-09-21T08:44:34;3.70;;;1.75;;
48733;SDS011;34530;52.084;5.146;2022-09-21T08:49:57;2.53;;;1.42;;
48733;SDS011;34530;52.084;5.146;2022-09-21T08:52:27;2.85;;;1.67;;
48733;SDS011;34530;52.084;5.146;2022-09-21T08:55:05;3.08;;;1.60;;
48733;SDS011;34530;52.084;5.146;2022-09-21T08:57:39;2.72;;;1.52;;
48733;SDS011;34530;52.084;5.146;2022-09-21T09:00:06;8.00;;;1.80;;
48733;SDS011;34530;52.084;5.146;2022-09-21T09:02:50;3.17;;;1.73;;
48733;SDS011;34530;52.084;5.146;2022-09-21T09:05:59;5.25;;;1.58;;
48733;SDS011;34530;52.084;5.146;2022-09-21T09:19:49;3.60;;;1.67;;
48733;SDS011;34530;52.084;5.146;2022-09-21T09:22:33;2.70;;;1.42;;
48733;SDS011;34530;52.084;5.146;2022-09-21T09:25:05;3.70;;;1.30;;
48733;SDS011;34530;52.084;5.146;2022-09-21T09:27:47;2.95;;;1.75;;
48733;SDS011;34530;52.084;5.146;2022-09-21T09:30:20;1.60;;;1.38;;
48733;SDS011;34530;52.084;5.146;2022-09-21T09:32:57;3.00;;;1.42;;
48733;SDS011;34530;52.084;5.146;2022-09-21T09:35:44;5.10;;;1.60;;
48733;SDS011;34530;52.084;5.146;2022-09-21T09:38:43;3.80;;;1.70;;
48733;SDS011;34530;52.084;5.146;2022-09-21T09:41:29;2.88;;;1.58;;
48733;SDS011;34530;52.084;5.146;2022-09-21T09:47:02;3.00;;;1.40;;
48733;SDS011;34530;52.084;5.146;2022-09-21T09:49:58;1.45;;;1.10;;
48733;SDS011;34530;52.084;5.146;2022-09-21T09:52:26;3.47;;;1.30;;
48733;SDS011;34530;52.084;5.146;2022-09-21T09:54:52;2.72;;;1.45;;
48733;SDS011;34530;52.084;5.146;2022-09-21T09:57:19;3.15;;;1.50;;
48733;SDS011;34530;52.084;5.146;2022-09-21T10:00:04;4.60;;;1.33;;
48733;SDS011;34530;52.084;5.146;2022-09-21T10:05:42;2.30;;;1.65;;
48733;SDS011;34530;52.084;5.146;2022-09-21T10:11:04;2.05;;;1.17;;
48733;SDS011;34530;52.084;5.146;2022-09-21T10:13:30;2.53;;;1.45;;
48733;SDS011;34530;52.084;5.146;2022-09-21T10:18:39;6.90;;;1.65;;
48733;SDS011;34530;52.084;5.146;2022-09-21T10:21:22;3.13;;;1.40;;
48733;SDS011;34530;52.084;5.146;2022-09-21T10:24:02;4.45;;;1.42;;
48733;SDS011;34530;52.084;5.146;2022-09-21T10:26:30;3.55;;;1.42;;
48733;SDS011;34530;52.084;5.146;2022-09-21T10:32:02;4.22;;;1.20;;
48733;SDS011;34530;52.084;5.146;2022-09-21T10:34:36;3.30;;;1.35;;
48733;SDS011;34530;52.084;5.146;2022-09-21T10:37:22;3.88;;;1.48;;
48733;SDS011;34530;52.084;5.146;2022-09-21T10:39:53;1.55;;;1.00;;
48733;SDS011;34530;52.084;5.146;2022-09-21T10:42:19;4.22;;;1.10;;
48733;SDS011;34530;52.084;5.146;2022-09-21T10:47:21;1.63;;;1.20;;
48733;SDS011;34530;52.084;5.146;2022-09-21T10:55:35;2.67;;;1.42;;
48733;SDS011;34530;52.084;5.146;2022-09-21T10:58:02;2.83;;;1.10;;
48733;SDS011;34530;52.084;5.146;2022-09-21T11:00:41;1.45;;;1.00;;
48733;SDS011;34530;52.084;5.146;2022-09-21T11:03:32;3.30;;;1.40;;
48733;SDS011;34530;52.084;5.146;2022-09-21T11:07:05;1.02;;;0.88;;
48733;SDS011;34530;52.084;5.146;2022-09-21T11:14:44;3.15;;;1.30;;
48733;SDS011;34530;52.084;5.146;2022-09-21T11:20:38;1.65;;;0.98;;
48733;SDS011;34530;52.084;5.146;2022-09-21T11:26:13;2.30;;;1.00;;
48733;SDS011;34530;52.084;5.146;2022-09-21T11:28:56;1.88;;;0.93;;
48733;SDS011;34530;52.084;5.146;2022-09-21T11:31:58;2.75;;;1.25;;
48733;SDS011;34530;52.084;5.146;2022-09-21T12:16:09;2.60;;;1.75;;
48733;SDS011;34530;52.084;5.146;2022-09-21T12:18:53;1.60;;;1.10;;
48733;SDS011;34530;52.084;5.146;2022-09-21T12:21:30;2.05;;;0.88;;
48733;SDS011;34530;52.084;5.146;2022-09-21T12:26:54;3.42;;;1.42;;
48733;SDS011;34530;52.084;5.146;2022-09-21T12:31:56;1.42;;;1.00;;
48733;SDS011;34530;52.084;5.146;2022-09-21T12:34:39;2.63;;;1.13;;
48733;SDS011;34530;52.084;5.146;2022-09-21T12:37:09;2.22;;;1.00;;
48733;SDS011;34530;52.084;5.146;2022-09-21T12:53:09;1.38;;;0.80;;
48733;SDS011;34530;52.084;5.146;2022-09-21T12:58:36;1.88;;;0.90;;
48733;SDS011;34530;52.084;5.146;2022-09-21T13:01:12;2.40;;;1.00;;
48733;SDS011;34530;52.084;5.146;2022-09-21T13:03:58;2.05;;;0.75;;
48733;SDS011;34530;52.084;5.146;2022-09-21T13:06:47;2.92;;;1.17;;
48733;SDS011;34530;52.084;5.146;2022-09-21T13:09:39;1.40;;;0.75;;
48733;SDS011;34530;52.084;5.146;2022-09-21T13:12:14;1.67;;;1.10;;
48733;SDS011;34530;52.084;5.146;2022-09-21T13:14:43;1.83;;;1.08;;
48733;SDS011;34530;52.084;5.146;2022-09-21T13:17:20;4.85;;;1.35;;
48733;SDS011;34530;52.084;5.146;2022-09-21T13:19:55;3.17;;;0.95;;
48733;SDS011;34530;52.084;5.146;2022-09-21T13:22:40;2.30;;;0.95;;
48733;SDS011;34530;52.084;5.146;2022-09-21T13:25:17;2.30;;;1.15;;
48733;SDS011;34530;52.084;5.146;2022-09-21T13:30:34;4.10;;;0.95;;
48733;SDS011;34530;52.084;5.146;2022-09-21T13:33:03;1.38;;;0.90;;
48733;SDS011;34530;52.084;5.146;2022-09-21T13:35:59;1.92;;;1.00;;
48733;SDS011;34530;52.084;5.146;2022-09-21T13:43:45;3.08;;;0.82;;
48733;SDS011;34530;52.084;5.146;2022-09-21T13:49:02;1.95;;;0.88;;
48733;SDS011;34530;52.084;5.146;2022-09-21T13:54:50;1.30;;;0.80;;
48733;SDS011;34530;52.084;5.146;2022-09-21T14:02:37;3.47;;;0.95;;
48733;SDS011;34530;52.084;5.146;2022-09-21T14:08:00;2.38;;;0.95;;
48733;SDS011;34530;52.084;5.146;2022-09-21T14:10:29;2.17;;;1.17;;
48733;SDS011;34530;52.084;5.146;2022-09-21T14:12:59;2.70;;;0.90;;
48733;SDS011;34530;52.084;5.146;2022-09-21T14:15:33;1.42;;;0.90;;
48733;SDS011;34530;52.084;5.146;2022-09-21T14:23:36;2.03;;;1.05;;
48733;SDS011;34530;52.084;5.146;2022-09-21T14:26:19;1.30;;;0.70;;
48733;SDS011;34530;52.084;5.146;2022-09-21T14:28:57;2.35;;;0.80;;
48733;SDS011;34530;52.084;5.146;2022-09-21T14:31:32;0.95;;;0.80;;
48733;SDS011;34530;52.084;5.146;2022-09-21T14:34:01;1.00;;;0.90;;
48733;SDS011;34530;52.084;5.146;2022-09-21T14:36:35;2.20;;;0.80;;
48733;SDS011;34530;52.084;5.146;2022-09-21T14:39:05;2.28;;;1.13;;
48733;SDS011;34530;52.084;5.146;2022-09-21T14:41:49;1.48;;;0.80;;
48733;SDS011;34530;52.084;5.146;2022-09-21T14:44:18;1.00;;;0.80;;
48733;SDS011;34530;52.084;5.146;2022-09-21T14:55:46;1.95;;;1.05;;
48733;SDS011;34530;52.084;5.146;2022-09-21T15:01:23;1.55;;;1.00;;
48733;SDS011;34530;52.084;5.146;2022-09-21T15:10:18;1.52;;;0.70;;
48733;SDS011;34530;52.084;5.146;2022-09-21T15:13:09;1.92;;;0.80;;
48733;SDS011;34530;52.084;5.146;2022-09-21T15:15:56;1.95;;;0.95;;
48733;SDS011;34530;52.084;5.146;2022-09-21T15:18:32;1.40;;;0.90;;
48733;SDS011;34530;52.084;5.146;2022-09-21T15:21:03;1.45;;;1.00;;
48733;SDS011;34530;52.084;5.146;2022-09-21T15:23:38;2.92;;;0.90;;
48733;SDS011;34530;52.084;5.146;2022-09-21T15:26:08;1.63;;;0.80;;
48733;SDS011;34530;52.084;5.146;2022-09-21T15:28:45;2.05;;;0.95;;
48733;SDS011;34530;52.084;5.146;2022-09-21T15:31:14;1.30;;;0.73;;
48733;SDS011;34530;52.084;5.146;2022-09-21T15:33:41;1.88;;;0.80;;
48733;SDS011;34530;52.084;5.146;2022-09-21T15:36:10;2.58;;;0.80;;
48733;SDS011;34530;52.084;5.146;2022-09-21T15:38:36;1.42;;;0.77;;
48733;SDS011;34530;52.084;5.146;2022-09-21T15:41:03;2.80;;;0.90;;
48733;SDS011;34530;52.084;5.146;2022-09-21T15:43:30;2.33;;;0.98;;
48733;SDS011;34530;52.084;5.146;2022-09-21T15:46:02;1.73;;;0.80;;
48733;SDS011;34530;52.084;5.146;2022-09-21T15:48:31;1.45;;;0.80;;
48733;SDS011;34530;52.084;5.146;2022-09-21T15:53:37;2.65;;;1.02;;
48733;SDS011;34530;52.084;5.146;2022-09-21T15:56:16;1.58;;;0.82;;
48733;SDS011;34530;52.084;5.146;2022-09-21T15:58:47;0.90;;;0.65;;
48733;SDS011;34530;52.084;5.146;2022-09-21T16:01:18;0.85;;;0.82;;
48733;SDS011;34530;52.084;5.146;2022-09-21T16:03:47;1.63;;;0.60;;
48733;SDS011;34530;52.084;5.146;2022-09-21T16:06:35;1.40;;;0.90;;
48733;SDS011;34530;52.084;5.146;2022-09-21T16:11:53;1.77;;;0.90;;
48733;SDS011;34530;52.084;5.146;2022-09-21T16:14:19;1.02;;;0.70;;
48733;SDS011;34530;52.084;5.146;2022-09-21T16:19:39;0.65;;;0.52;;
48733;SDS011;34530;52.084;5.146;2022-09-21T16:22:09;0.77;;;0.75;;
48733;SDS011;34530;52.084;5.146;2022-09-21T16:24:42;2.63;;;0.90;;
48733;SDS011;34530;52.084;5.146;2022-09-21T16:27:14;1.80;;;0.63;;
48733;SDS011;34530;52.084;5.146;2022-09-21T16:29:44;1.63;;;0.80;;
48733;SDS011;34530;52.084;5.146;2022-09-21T16:34:47;2.67;;;0.90;;
48733;SDS011;34530;52.084;5.146;2022-09-21T16:37:26;2.53;;;1.10;;
48733;SDS011;34530;52.084;5.146;2022-09-21T16:39:53;0.88;;;0.80;;
48733;SDS011;34530;52.084;5.146;2022-09-21T16:42:21;1.92;;;0.80;;
48733;SDS011;34530;52.084;5.146;2022-09-21T16:44:47;1.35;;;0.88;;
48733;SDS011;34530;52.084;5.146;2022-09-21T16:47:15;1.55;;;1.08;;
48733;SDS011;34530;52.084;5.146;2022-09-21T16:49:49;1.63;;;1.00;;
48733;SDS011;34530;52.084;5.146;2022-09-21T16:52:17;1.90;;;0.85;;
48733;SDS011;34530;52.084;5.146;2022-09-21T16:54:43;1.20;;;0.80;;
48733;SDS011;34530;52.084;5.146;2022-09-21T16:57:11;0.93;;;0.88;;
48733;SDS011;34530;52.084;5.146;2022-09-21T16:59:38;1.45;;;0.85;;
48733;SDS011;34530;52.084;5.146;2022-09-21T17:02:04;1.42;;;0.88;;
48733;SDS011;34530;52.084;5.146;2022-09-21T17:04:30;1.52;;;0.90;;
48733;SDS011;34530;52.084;5.146;2022-09-21T17:06:57;1.58;;;0.85;;
48733;SDS011;34530;52.084;5.146;2022-09-21T17:09:25;2.20;;;0.98;;
48733;SDS011;34530;52.084;5.146;2022-09-21T17:11:55;1.75;;;0.90;;
48733;SDS011;34530;52.084;5.146;2022-09-21T17:14:24;1.23;;;0.98;;
48733;SDS011;34530;52.084;5.146;2022-09-21T17:16:50;1.45;;;0.88;;
48733;SDS011;34530;52.084;5.146;2022-09-21T17:19:17;1.52;;;0.80;;
48733;SDS011;34530;52.084;5.146;2022-09-21T17:21:44;1.20;;;0.85;;
48733;SDS011;34530;52.084;5.146;2022-09-21T17:24:11;2.95;;;1.00;;
48733;SDS011;34530;52.084;5.146;2022-09-21T17:26:37;1.52;;;1.08;;
48733;SDS011;34530;52.084;5.146;2022-09-21T17:29:05;1.27;;;1.00;;
48733;SDS011;34530;52.084;5.146;2022-09-21T17:31:50;2.50;;;1.27;;
48733;SDS011;34530;52.084;5.146;2022-09-21T17:34:21;1.20;;;1.00;;
48733;SDS011;34530;52.084;5.146;2022-09-21T17:36:48;2.17;;;1.00;;
48733;SDS011;34530;52.084;5.146;2022-09-21T17:39:14;2.45;;;0.93;;
48733;SDS011;34530;52.084;5.146;2022-09-21T17:41:45;2.45;;;1.10;;
48733;SDS011;34530;52.084;5.146;2022-09-21T17:47:19;2.40;;;1.00;;
48733;SDS011;34530;52.084;5.146;2022-09-21T17:49:48;1.70;;;0.90;;
48733;SDS011;34530;52.084;5.146;2022-09-21T17:52:16;2.17;;;1.00;;
48733;SDS011;34530;52.084;5.146;2022-09-21T17:55:03;4.43;;;1.30;;
48733;SDS011;34530;52.084;5.146;2022-09-21T18:00:34;1.92;;;1.00;;
48733;SDS011;34530;52.084;5.146;2022-09-21T18:03:25;2.85;;;1.00;;
48733;SDS011;34530;52.084;5.146;2022-09-21T18:05:53;2.13;;;1.20;;
48733;SDS011;34530;52.084;5.146;2022-09-21T18:08:28;2.75;;;1.02;;
48733;SDS011;34530;52.084;5.146;2022-09-21T18:11:25;4.78;;;1.20;;
48733;SDS011;34530;52.084;5.146;2022-09-21T18:25:14;3.67;;;0.98;;
48733;SDS011;34530;52.084;5.146;2022-09-21T18:27:45;1.85;;;1.02;;
48733;SDS011;34530;52.084;5.146;2022-09-21T18:30:12;1.58;;;1.00;;
48733;SDS011;34530;52.084;5.146;2022-09-21T18:32:56;0.88;;;0.80;;
48733;SDS011;34530;52.084;5.146;2022-09-21T18:38:11;2.80;;;0.90;;
48733;SDS011;34530;52.084;5.146;2022-09-21T18:55:22;1.33;;;0.95;;
48733;SDS011;34530;52.084;5.146;2022-09-21T18:57:55;1.73;;;1.10;;
48733;SDS011;34530;52.084;5.146;2022-09-21T19:00:22;1.33;;;1.08;;
48733;SDS011;34530;52.084;5.146;2022-09-21T19:02:55;1.52;;;1.00;;
48733;SDS011;34530;52.084;5.146;2022-09-21T19:05:22;3.35;;;1.20;;
48733;SDS011;34530;52.084;5.146;2022-09-21T19:10:42;1.73;;;1.20;;
48733;SDS011;34530;52.084;5.146;2022-09-21T19:16:01;3.92;;;1.45;;
48733;SDS011;34530;52.084;5.146;2022-09-21T19:21:51;1.60;;;1.13;;
48733;SDS011;34530;52.084;5.146;2022-09-21T19:27:38;4.65;;;1.10;;
48733;SDS011;34530;52.084;5.146;2022-09-21T19:30:11;2.80;;;1.30;;